Big Bear Station Historical Data
Daily Summary for April 18, 2017 Units:  English    Metric   Both
« Previous Day
Next Day »
Daily Weekly Monthly Yearly Custom
  High: Low: Average:
Temperature: 61.5 °F 40.8 °F 49 °F
Dew Point: 44.0 °F 32.6 °F 38.6 °F
Humidity: 93 % 40 % 70 %
Wind Speed: 8.3 mph 0.0 mph 3.1 mph
Wind Gust: -999.0 mph - -
Wind:- - WSW
Pressure: 30.21 in 30.16 in -
Precipitation: 0.00 in    
Historical Graphs
 
 
Tabular Data for April 18, 2017
Time Temperature Dew Point Pressure Wind Wind Speed Wind Gust Humidity Rainfall Rate (Hourly)
00:11 41.7 °F 32.6 °F 30.19 in Calm   -999.0 mph 70 % 0 in
00:26 42.4 °F 33.3 °F 30.19 in West 1.7 mph -999.0 mph 70 % 0 in
00:41 43.5 °F 33.6 °F 30.19 in NW 2.7 mph -999.0 mph 68 % 0 in
00:57 43.3 °F 33.8 °F 30.19 in Calm   -999.0 mph 69 % 0 in
01:13 43.3 °F 34.9 °F 30.19 in West 1.7 mph -999.0 mph 72 % 0 in
01:28 43.5 °F 36.1 °F 30.19 in WSW 1.1 mph -999.0 mph 75 % 0 in
01:43 43.7 °F 36.3 °F 30.18 in SSW 2.7 mph -999.0 mph 75 % 0 in
01:58 43.3 °F 36.6 °F 30.18 in NW 3.7 mph -999.0 mph 77 % 0 in
02:14 43.0 °F 36.9 °F 30.18 in Calm   -999.0 mph 79 % 0 in
02:29 42.6 °F 36.9 °F 30.18 in Calm   -999.0 mph 80 % 0 in
02:44 42.3 °F 37.2 °F 30.17 in Calm   -999.0 mph 82 % 0 in
02:59 42.3 °F 37.8 °F 30.17 in South 1.7 mph -999.0 mph 84 % 0 in
03:14 42.3 °F 38.1 °F 30.17 in SSE 1.1 mph -999.0 mph 85 % 0 in
03:30 42.1 °F 37.9 °F 30.17 in Calm   -999.0 mph 85 % 0 in
03:45 41.9 °F 38.0 °F 30.17 in SW 2.2 mph -999.0 mph 86 % 0 in
04:01 41.5 °F 37.9 °F 30.17 in Calm   -999.0 mph 87 % 0 in
04:16 41.4 °F 38.1 °F 30.17 in Calm   -999.0 mph 88 % 0 in
04:31 41.2 °F 38.2 °F 30.16 in Calm   -999.0 mph 89 % 0 in
04:46 40.8 °F 38.1 °F 30.16 in Calm   -999.0 mph 90 % 0 in
05:01 41.4 °F 39.3 °F 30.16 in NW 1.7 mph -999.0 mph 92 % 0 in
05:17 41.0 °F 38.9 °F 30.16 in Calm   -999.0 mph 92 % 0 in
05:32 41.0 °F 39.1 °F 30.16 in WNW 1.7 mph -999.0 mph 93 % 0 in
05:47 41.7 °F 39.8 °F 30.16 in NNW 4.2 mph -999.0 mph 93 % 0 in
06:02 42.1 °F 40.2 °F 30.16 in NW 3.2 mph -999.0 mph 93 % 0 in
06:17 42.1 °F 40.2 °F 30.16 in NW 2.7 mph -999.0 mph 93 % 0 in
06:33 42.3 °F 40.4 °F 30.17 in NW 3.7 mph -999.0 mph 93 % 0 in
06:48 42.6 °F 39.9 °F 30.17 in WSW 1.1 mph -999.0 mph 90 % 0 in
07:03 42.1 °F 39.4 °F 30.17 in Calm   -999.0 mph 90 % 0 in
07:18 43.0 °F 38.5 °F 30.18 in South 1.1 mph -999.0 mph 84 % 0 in
07:33 44.6 °F 37.8 °F 30.18 in NW 2.2 mph -999.0 mph 77 % 0 in
07:49 46.4 °F 37.1 °F 30.18 in NNW 4.7 mph -999.0 mph 70 % 0 in
08:04 47.1 °F 35.2 °F 30.18 in WNW 3.2 mph -999.0 mph 63 % 0 in
08:19 48.0 °F 33.5 °F 30.18 in SW 2.2 mph -999.0 mph 57 % 0 in
08:35 49.3 °F 33.8 °F 30.18 in NW 5.3 mph -999.0 mph 55 % 0 in
08:50 50.2 °F 33.7 °F 30.18 in NNW 8.3 mph -999.0 mph 53 % 0 in
09:05 51.3 °F 33.8 °F 30.18 in NW 6.8 mph -999.0 mph 51 % 0 in
09:21 52.2 °F 34.1 °F 30.19 in NW 5.3 mph -999.0 mph 50 % 0 in
09:36 52.5 °F 32.8 °F 30.19 in NW 3.2 mph -999.0 mph 47 % 0 in
09:51 53.2 °F 33.5 °F 30.20 in NNW 4.2 mph -999.0 mph 47 % 0 in
10:06 53.8 °F 36.6 °F 30.20 in WNW 4.2 mph -999.0 mph 52 % 0 in
10:21 54.5 °F 34.1 °F 30.20 in ESE 6.3 mph -999.0 mph 46 % 0 in
10:37 56.3 °F 36.9 °F 30.21 in NW 4.7 mph -999.0 mph 48 % 0 in
10:52 57.2 °F 35.5 °F 30.21 in NNW 5.3 mph -999.0 mph 44 % 0 in
11:07 59.2 °F 36.7 °F 30.21 in NW 5.3 mph -999.0 mph 43 % 0 in
11:23 60.1 °F 36.9 °F 30.21 in NW 6.3 mph -999.0 mph 42 % 0 in
11:38 60.4 °F 37.2 °F 30.21 in WSW 5.8 mph -999.0 mph 42 % 0 in
11:53 61.0 °F 36.5 °F 30.21 in NNW 4.2 mph -999.0 mph 40 % 0 in
12:09 59.7 °F 38.9 °F 30.21 in ENE 6.3 mph -999.0 mph 46 % 0 in
12:24 60.3 °F 38.9 °F 30.21 in SSE 4.2 mph -999.0 mph 45 % 0 in
12:40 59.9 °F 40.2 °F 30.21 in SSE 3.2 mph -999.0 mph 48 % 0 in
12:55 61.5 °F 42.2 °F 30.21 in NW 5.8 mph -999.0 mph 49 % 0 in
13:10 60.3 °F 40.0 °F 30.21 in NNW 3.7 mph -999.0 mph 47 % 0 in
13:26 60.4 °F 40.6 °F 30.21 in NW 4.7 mph -999.0 mph 48 % 0 in
13:41 60.4 °F 41.7 °F 30.21 in NNW 6.8 mph -999.0 mph 50 % 0 in
13:56 60.4 °F 41.2 °F 30.20 in WNW 1.7 mph -999.0 mph 49 % 0 in
14:12 61.2 °F 42.9 °F 30.20 in WNW 5.8 mph -999.0 mph 51 % 0 in
14:27 60.6 °F 41.3 °F 30.20 in WNW 5.8 mph -999.0 mph 49 % 0 in
14:42 60.6 °F 41.9 °F 30.20 in West 7.8 mph -999.0 mph 50 % 0 in
14:57 60.6 °F 41.9 °F 30.19 in NW 6.8 mph -999.0 mph 50 % 0 in
15:13 59.4 °F 41.8 °F 30.19 in WNW 4.7 mph -999.0 mph 52 % 0 in
15:28 59.0 °F 40.9 °F 30.18 in West 2.2 mph -999.0 mph 51 % 0 in
15:43 57.7 °F 40.2 °F 30.16 in West 6.8 mph -999.0 mph 52 % 0 in
15:58 56.3 °F 42.6 °F 30.16 in SSE 4.2 mph -999.0 mph 60 % 0 in
16:14 57.4 °F 43.2 °F 30.16 in WNW 3.7 mph -999.0 mph 59 % 0 in
16:29 56.3 °F 43.4 °F 30.16 in SE 6.8 mph -999.0 mph 62 % 0 in
16:44 57.4 °F 43.6 °F 30.17 in SSW 3.7 mph -999.0 mph 60 % 0 in
17:00 55.2 °F 43.2 °F 30.17 in NE 4.7 mph -999.0 mph 64 % 0 in
17:15 53.1 °F 43.2 °F 30.18 in SSW 2.2 mph -999.0 mph 69 % 0 in
17:30 54.3 °F 44.0 °F 30.18 in SSW 2.2 mph -999.0 mph 68 % 0 in
17:46 52.2 °F 43.4 °F 30.17 in ENE 5.3 mph -999.0 mph 72 % 0 in
18:01 52.5 °F 43.4 °F 30.16 in ESE 1.7 mph -999.0 mph 71 % 0 in
18:16 50.7 °F 42.7 °F 30.16 in SSW 2.2 mph -999.0 mph 74 % 0 in
18:32 48.6 °F 42.4 °F 30.17 in South 3.2 mph -999.0 mph 79 % 0 in
18:47 47.8 °F 41.9 °F 30.17 in SSE 1.7 mph -999.0 mph 80 % 0 in
19:02 47.3 °F 41.8 °F 30.17 in NNE 4.7 mph -999.0 mph 81 % 0 in
19:17 46.6 °F 41.4 °F 30.17 in NW 3.2 mph -999.0 mph 82 % 0 in
19:33 46.0 °F 40.5 °F 30.17 in WNW 1.1 mph -999.0 mph 81 % 0 in
19:48 45.7 °F 40.2 °F 30.18 in SSW 1.7 mph -999.0 mph 81 % 0 in
20:04 45.3 °F 39.8 °F 30.18 in SSW 3.2 mph -999.0 mph 81 % 0 in
20:19 45.0 °F 39.5 °F 30.18 in NW 3.2 mph -999.0 mph 81 % 0 in
20:34 44.6 °F 39.4 °F 30.19 in SE 2.2 mph -999.0 mph 82 % 0 in
20:49 44.1 °F 39.0 °F 30.19 in West 1.1 mph -999.0 mph 82 % 0 in
21:05 43.9 °F 38.8 °F 30.19 in SSE 4.7 mph -999.0 mph 82 % 0 in
21:20 43.9 °F 38.4 °F 30.19 in SSW 2.2 mph -999.0 mph 81 % 0 in
21:35 43.7 °F 38.3 °F 30.19 in South 1.7 mph -999.0 mph 81 % 0 in
21:50 43.3 °F 37.9 °F 30.19 in WSW 2.2 mph -999.0 mph 81 % 0 in
22:05 43.3 °F 37.9 °F 30.19 in SSE 2.2 mph -999.0 mph 81 % 0 in
22:21 43.0 °F 37.9 °F 30.19 in South 3.2 mph -999.0 mph 82 % 0 in
22:36 42.8 °F 37.7 °F 30.19 in WSW 4.7 mph -999.0 mph 82 % 0 in
22:51 42.4 °F 37.3 °F 30.20 in Calm   -999.0 mph 82 % 0 in
23:06 42.1 °F 37.0 °F 30.20 in South 2.2 mph -999.0 mph 82 % 0 in
23:21 42.1 °F 37.3 °F 30.20 in NW 3.7 mph -999.0 mph 83 % 0 in
23:37 41.5 °F 36.1 °F 30.20 in ESE 1.7 mph -999.0 mph 81 % 0 in
23:52 41.4 °F 34.4 °F 30.20 in West 3.2 mph -999.0 mph 76 % 0 in
Big Bear CA Weather
Compliments of Weather Underground - 1.5 mb